Terminal Aerodrome Forecast
Issued by NWS Wakefield, VA

Home | Current Version | Previous Version | Text Only | Print | Product List | Glossary On
Versions: 1 2 3 4 5 6 7 8 9 10 11 12 13 14 15 16
505
FTUS41 KAKQ 271124
TAFECG
TAF
KECG 271124Z 2712/2812 18004KT P6SM BKN070 OVC120
     FM271600 20007KT 5SM -SHRA BR OVC050
     FM272100 13005KT P6SM -SHRA OVC070
     FM280300 VRB03KT P6SM BKN090=

USA.gov is the U.S. government's official web portal to all federal, state and local government web resources and services.